Time;durP1;ratioP1;P1;durP2;ratioP2;P2;SDS_P1;SDS_P2;PMS_P1;PMS_P2;Temp;Humidity;BMP_temperature;BMP_pressure;BME280_temperature;BME280_humidity;BME280_pressure;Samples;Min_cycle;Max_cycle;Signal;HPM_P1;HPM_P2
2022/12/24 00:02:12;;;;;;;4.80;1.58;;;10.60;99.90;;;;;;5008860;28;20030;-58
2022/12/24 00:04:38;;;;;;;5.78;1.23;;;10.60;99.90;;;;;;5009082;28;20029;-59
2022/12/24 00:07:04;;;;;;;7.03;2.03;;;10.60;99.90;;;;;;5008306;28;20030;-57
2022/12/24 00:09:29;;;;;;;6.90;1.50;;;10.50;99.90;;;;;;5008933;28;20483;-58
2022/12/24 00:11:55;;;;;;;9.65;1.30;;;10.50;99.90;;;;;;5007953;28;20092;-59
2022/12/24 00:14:21;;;;;;;6.10;1.67;;;10.60;99.90;;;;;;5007684;28;20034;-58
2022/12/24 00:16:46;;;;;;;6.70;1.48;;;10.50;99.90;;;;;;5007939;28;20506;-58
2022/12/24 00:19:12;;;;;;;7.32;1.77;;;10.50;99.90;;;;;;5008666;28;20379;-60
2022/12/24 00:21:38;;;;;;;5.63;1.55;;;10.50;99.90;;;;;;5009173;28;20024;-58
2022/12/24 00:24:04;;;;;;;5.18;1.23;;;10.50;99.90;;;;;;5007815;28;20720;-58
2022/12/24 00:26:31;;;;;;;4.80;1.30;;;10.50;99.90;;;;;;5007254;28;20121;-58
2022/12/24 00:28:57;;;;;;;4.90;1.33;;;10.50;99.90;;;;;;5007882;28;20167;-57
2022/12/24 00:31:22;;;;;;;4.65;1.20;;;10.50;99.90;;;;;;5008096;28;20749;-58
2022/12/24 00:33:48;;;;;;;9.23;1.08;;;10.50;99.90;;;;;;5008634;28;20029;-57
2022/12/24 00:36:14;;;;;;;7.82;1.67;;;10.40;99.90;;;;;;5007786;28;20113;-59
2022/12/24 00:38:40;;;;;;;7.72;1.70;;;10.50;99.90;;;;;;5008543;28;20034;-58
2022/12/24 00:41:27;;;;;;;6.00;1.40;;;10.50;99.90;;;;;;5007618;28;20549;-60
2022/12/24 00:43:56;;;;;;;7.93;1.60;;;10.50;99.90;;;;;;5008175;28;20030;-57
2022/12/24 00:46:23;;;;;;;15.13;1.70;;;10.50;99.90;;;;;;5006842;28;20553;-57
2022/12/24 00:48:48;;;;;;;5.43;1.30;;;10.50;99.90;;;;;;5008452;28;20029;-57
2022/12/24 00:51:14;;;;;;;8.88;1.35;;;10.40;99.90;;;;;;5008219;28;20030;-59
2022/12/24 00:53:40;;;;;;;8.20;1.70;;;10.40;99.90;;;;;;5007269;28;20513;-58
2022/12/24 00:56:06;;;;;;;8.20;1.67;;;10.30;99.90;;;;;;5007907;28;20088;-59
2022/12/24 00:58:31;;;;;;;13.65;1.73;;;10.30;99.90;;;;;;5007359;28;20038;-58
2022/12/24 01:00:57;;;;;;;7.53;1.88;;;10.30;99.90;;;;;;5008409;28;20091;-58
2022/12/24 01:03:33;;;;;;;8.40;1.70;;;10.30;99.90;;;;;;5007491;28;20033;-58
2022/12/24 01:05:58;;;;;;;7.57;1.48;;;10.30;99.90;;;;;;5011403;28;20034;-58
2022/12/24 01:08:24;;;;;;;5.82;1.35;;;10.40;99.90;;;;;;5007770;28;20033;-58
2022/12/24 01:10:49;;;;;;;4.78;1.17;;;10.40;99.90;;;;;;5006945;28;20046;-57
2022/12/24 01:13:15;;;;;;;9.77;1.65;;;10.40;99.90;;;;;;5007614;28;20079;-59
2022/12/24 01:15:41;;;;;;;8.25;1.63;;;10.40;99.90;;;;;;5007185;28;20037;-58
2022/12/24 01:18:06;;;;;;;6.45;1.50;;;10.40;99.90;;;;;;5006802;28;20599;-57
2022/12/24 01:20:32;;;;;;;5.35;1.50;;;10.40;99.90;;;;;;5009715;28;20129;-58
2022/12/24 01:22:57;;;;;;;9.77;1.92;;;10.50;99.90;;;;;;5006111;28;20034;-57
2022/12/24 01:25:23;;;;;;;7.57;1.38;;;10.50;99.90;;;;;;5007295;28;20061;-57
2022/12/24 01:27:49;;;;;;;4.20;1.35;;;10.50;99.90;;;;;;5007631;28;20030;-58
2022/12/24 01:30:14;;;;;;;5.03;1.48;;;10.50;99.90;;;;;;5007594;28;20022;-58
2022/12/24 01:32:40;;;;;;;4.43;1.20;;;10.60;99.90;;;;;;5007513;28;20030;-58
2022/12/24 01:35:06;;;;;;;6.00;1.48;;;10.60;99.90;;;;;;5007158;28;20105;-58
2022/12/24 01:37:32;;;;;;;4.05;1.10;;;10.60;99.90;;;;;;5007065;28;20045;-58
2022/12/24 01:45:55;;;;;;;5.88;2.13;;;10.60;99.90;;;;;;5006959;28;20913;-58
2022/12/24 01:48:29;;;;;;;4.47;1.38;;;10.60;99.90;;;;;;5007558;28;20413;-58
2022/12/24 01:51:01;;;;;;;3.88;1.20;;;10.50;99.90;;;;;;5006622;28;20033;-58
2022/12/24 01:53:28;;;;;;;9.05;1.30;;;10.50;99.90;;;;;;5007667;28;20050;-57
2022/12/24 01:55:54;;;;;;;3.80;1.05;;;10.50;99.90;;;;;;5006834;28;20034;-58
2022/12/24 01:58:21;;;;;;;6.47;1.23;;;10.50;99.90;;;;;;5008607;28;20034;-57
2022/12/24 02:00:47;;;;;;;4.68;1.55;;;10.50;99.90;;;;;;5012531;28;20082;-60
2022/12/24 02:03:13;;;;;;;5.13;1.90;;;10.50;99.90;;;;;;5010440;28;20049;-58
2022/12/24 02:05:44;;;;;;;6.80;1.63;;;10.50;99.90;;;;;;5010791;28;20039;-59
2022/12/24 02:08:11;;;;;;;3.83;1.30;;;10.50;99.90;;;;;;5010336;28;20074;-58
2022/12/24 02:10:36;;;;;;;9.55;1.60;;;10.50;99.90;;;;;;5011173;28;20041;-58
2022/12/24 02:13:04;;;;;;;4.40;1.30;;;10.50;99.90;;;;;;5010241;28;20026;-59
2022/12/24 02:15:40;;;;;;;6.45;2.00;;;10.50;99.90;;;;;;5011368;28;20378;-59
2022/12/24 02:18:13;;;;;;;5.88;1.38;;;10.50;99.90;;;;;;4993884;28;20049;-58
2022/12/24 02:21:29;;;;;;;4.93;1.17;;;10.50;99.90;;;;;;5010502;28;20018;-58
2022/12/24 02:23:58;;;;;;;5.65;2.05;;;10.50;99.90;;;;;;5010189;28;20442;-59
2022/12/24 02:26:42;;;;;;;7.80;1.42;;;10.50;99.90;;;;;;5010128;28;20041;-59
2022/12/24 02:29:26;;;;;;;8.20;1.73;;;10.50;99.90;;;;;;5012307;28;20030;-58
2022/12/24 02:32:04;;;;;;;5.97;1.30;;;10.50;99.90;;;;;;5009612;28;20177;-59
2022/12/24 02:34:41;;;;;;;4.43;1.42;;;10.50;99.90;;;;;;5011135;28;20371;-60
2022/12/24 02:37:16;;;;;;;9.50;1.85;;;10.50;99.90;;;;;;5009496;28;20107;-58
2022/12/24 02:39:51;;;;;;;8.35;1.70;;;10.50;99.90;;;;;;5011379;28;20389;-58
2022/12/24 02:42:22;;;;;;;7.13;1.40;;;10.50;99.90;;;;;;5009549;28;20027;-59
2022/12/24 02:44:51;;;;;;;7.28;1.75;;;10.50;99.90;;;;;;5009987;28;20099;-58
2022/12/24 02:47:19;;;;;;;3.95;1.30;;;10.40;99.90;;;;;;5009929;28;20092;-58
2022/12/24 02:49:46;;;;;;;11.30;1.58;;;10.40;99.90;;;;;;5010843;28;20083;-58
2022/12/24 02:52:30;;;;;;;7.85;1.95;;;10.40;99.90;;;;;;5010364;28;20042;-57
2022/12/24 02:55:00;;;;;;;5.40;1.48;;;10.30;99.90;;;;;;5010223;28;20410;-58
2022/12/24 02:57:31;;;;;;;5.75;1.30;;;10.30;99.90;;;;;;5009793;28;20116;-59
2022/12/24 03:00:14;;;;;;;7.15;1.13;;;10.30;99.90;;;;;;5009140;28;20549;-60
2022/12/24 03:02:46;;;;;;;6.97;1.42;;;10.30;99.90;;;;;;5010360;28;20058;-56
2022/12/24 03:05:21;;;;;;;5.15;1.40;;;10.30;99.90;;;;;;5009749;28;20501;-57
2022/12/24 03:08:19;;;;;;;7.20;1.75;;;10.30;99.90;;;;;;5009005;28;20058;-57
2022/12/24 03:10:54;;;;;;;8.77;1.92;;;10.20;99.90;;;;;;5008719;28;20032;-58
2022/12/24 03:13:21;;;;;;;7.30;1.40;;;10.20;99.90;;;;;;5009082;28;20037;-58
2022/12/24 03:15:48;;;;;;;8.18;1.77;;;10.20;99.90;;;;;;5015609;28;20018;-59
2022/12/24 03:18:18;;;;;;;7.93;1.60;;;10.20;99.90;;;;;;5009832;28;20037;-58
2022/12/24 03:20:58;;;;;;;9.02;1.80;;;10.20;99.90;;;;;;5009928;28;20398;-58
2022/12/24 03:23:24;;;;;;;9.45;1.77;;;10.20;99.90;;;;;;5009115;28;20041;-60
2022/12/24 03:25:50;;;;;;;8.43;1.67;;;10.10;99.90;;;;;;5008587;28;20040;-59
2022/12/24 03:28:17;;;;;;;6.65;1.63;;;10.20;99.90;;;;;;5009194;28;20014;-57
2022/12/24 03:30:45;;;;;;;5.82;1.98;;;10.10;99.90;;;;;;5008769;28;20030;-58
2022/12/24 03:33:12;;;;;;;8.25;2.15;;;10.10;99.90;;;;;;5009518;28;20046;-59
2022/12/24 03:35:37;;;;;;;7.15;1.42;;;10.10;99.90;;;;;;5006362;28;20631;-60
2022/12/24 03:38:03;;;;;;;6.30;1.70;;;10.10;99.90;;;;;;5009067;28;20065;-58
2022/12/24 03:40:29;;;;;;;8.30;1.50;;;10.10;99.90;;;;;;5009058;28;20117;-58
2022/12/24 03:42:55;;;;;;;8.30;1.52;;;10.00;99.90;;;;;;5009425;28;20492;-58
2022/12/24 03:45:21;;;;;;;11.63;1.73;;;10.00;99.90;;;;;;5006795;28;20025;-59
2022/12/24 03:47:46;;;;;;;4.25;1.40;;;10.00;99.90;;;;;;5009399;28;20024;-57
2022/12/24 03:50:12;;;;;;;5.53;1.50;;;10.00;99.90;;;;;;5008928;28;20062;-58
2022/12/24 03:52:38;;;;;;;6.05;1.40;;;10.00;99.90;;;;;;5009299;28;20494;-59
2022/12/24 03:55:04;;;;;;;9.48;2.00;;;10.00;99.90;;;;;;5008714;28;20101;-58
2022/12/24 03:57:29;;;;;;;5.95;1.30;;;10.00;99.90;;;;;;5009604;28;20496;-58
2022/12/24 03:59:55;;;;;;;7.10;1.25;;;10.00;99.90;;;;;;5009307;28;20038;-58
2022/12/24 04:02:20;;;;;;;12.45;2.30;;;10.00;99.90;;;;;;5006994;28;20022;-59
2022/12/24 04:04:46;;;;;;;7.03;1.45;;;10.00;99.90;;;;;;5009162;28;20429;-57
2022/12/24 04:07:12;;;;;;;6.85;1.58;;;10.00;99.90;;;;;;5008759;28;20088;-58
2022/12/24 04:09:39;;;;;;;14.63;1.85;;;10.00;99.90;;;;;;5009669;28;20034;-58
2022/12/24 04:12:05;;;;;;;7.70;1.67;;;10.00;99.90;;;;;;5008630;28;20030;-59
2022/12/24 04:14:31;;;;;;;5.00;1.65;;;10.00;99.90;;;;;;5008799;28;20053;-58
2022/12/24 04:16:56;;;;;;;4.72;1.77;;;9.90;99.90;;;;;;5009044;28;20029;-59
2022/12/24 04:19:22;;;;;;;7.60;1.85;;;9.90;99.90;;;;;;5008498;28;20030;-60
2022/12/24 04:21:48;;;;;;;8.50;2.42;;;9.80;99.90;;;;;;5008187;28;20423;-58
2022/12/24 04:24:13;;;;;;;3.65;1.27;;;9.80;99.90;;;;;;5007031;28;20030;-56
2022/12/24 04:26:39;;;;;;;4.38;1.35;;;9.80;99.90;;;;;;5008105;28;20026;-58
2022/12/24 04:29:05;;;;;;;6.57;1.80;;;9.80;99.90;;;;;;5008597;28;20029;-58
2022/12/24 04:31:30;;;;;;;4.20;1.20;;;9.80;99.90;;;;;;5008650;28;20026;-59
2022/12/24 04:33:56;;;;;;;13.77;1.67;;;9.80;99.90;;;;;;5009334;28;20832;-58
2022/12/24 04:36:21;;;;;;;6.47;2.17;;;9.80;99.90;;;;;;5007997;28;20074;-59
2022/12/24 04:38:47;;;;;;;6.05;1.38;;;9.80;99.90;;;;;;5008573;28;20041;-59
2022/12/24 04:41:19;;;;;;;12.07;1.92;;;9.80;99.90;;;;;;5008198;28;20076;-58
2022/12/24 04:43:45;;;;;;;7.50;1.85;;;9.80;99.90;;;;;;5008697;28;20363;-59
2022/12/24 04:46:14;;;;;;;15.00;2.42;;;9.80;99.90;;;;;;4992547;28;20034;-58
2022/12/24 04:48:40;;;;;;;7.60;1.88;;;9.80;99.90;;;;;;5010534;28;20037;-60
2022/12/24 04:51:07;;;;;;;7.95;1.88;;;9.80;99.90;;;;;;5008413;28;20026;-59
2022/12/24 04:53:34;;;;;;;5.60;2.03;;;9.80;99.90;;;;;;5007029;28;20060;-58
2022/12/24 04:56:00;;;;;;;7.93;1.52;;;9.80;99.90;;;;;;5008234;28;20418;-58
2022/12/24 04:58:26;;;;;;;14.70;2.13;;;9.80;99.90;;;;;;5008118;28;20026;-60
2022/12/24 05:00:55;;;;;;;6.65;1.85;;;9.80;99.90;;;;;;5008807;28;20033;-58
2022/12/24 05:03:20;;;;;;;5.38;1.42;;;9.80;99.90;;;;;;5007352;28;20044;-59
2022/12/24 05:05:46;;;;;;;10.25;2.03;;;9.70;99.90;;;;;;4997180;28;20026;-58
2022/12/24 05:08:12;;;;;;;7.78;1.65;;;9.70;99.90;;;;;;5008109;28;20041;-57
2022/12/24 05:10:38;;;;;;;7.93;1.48;;;9.70;99.90;;;;;;5007518;28;20045;-59
2022/12/24 05:13:04;;;;;;;8.48;2.63;;;9.60;99.90;;;;;;5007653;28;20462;-58
2022/12/24 05:15:30;;;;;;;8.60;1.80;;;9.60;99.90;;;;;;5009501;28;20083;-59
2022/12/24 05:17:57;;;;;;;6.30;1.27;;;9.60;99.90;;;;;;5009568;28;20667;-60
2022/12/24 05:20:22;;;;;;;13.43;2.55;;;9.60;99.90;;;;;;5007064;28;20033;-61
2022/12/24 05:28:21;;;;;;;9.82;1.80;;;9.50;99.90;;;;;;5007670;28;20040;-61
2022/12/24 05:30:46;;;;;;;6.00;1.50;;;9.50;99.90;;;;;;5008275;28;20022;-61
2022/12/24 05:33:12;;;;;;;9.02;1.60;;;9.50;99.90;;;;;;5008625;28;20026;-59
2022/12/24 05:35:38;;;;;;;10.18;1.98;;;9.50;99.90;;;;;;5012057;28;20441;-61
2022/12/24 05:38:03;;;;;;;8.07;1.58;;;9.50;99.90;;;;;;5011245;28;20050;-60
2022/12/24 05:40:29;;;;;;;6.80;1.67;;;9.40;99.90;;;;;;5011666;28;20092;-60
2022/12/24 05:42:54;;;;;;;8.18;1.40;;;9.30;99.90;;;;;;5010933;28;20033;-59
2022/12/24 05:45:20;;;;;;;11.25;1.95;;;9.30;99.90;;;;;;5012009;28;20034;-60
2022/12/24 05:47:46;;;;;;;11.25;1.90;;;9.30;99.90;;;;;;5011638;28;20022;-62
2022/12/24 05:50:11;;;;;;;9.38;2.22;;;9.30;99.90;;;;;;5010797;28;20026;-59
2022/12/24 05:52:37;;;;;;;9.60;2.33;;;9.30;99.90;;;;;;5011611;28;20065;-59
2022/12/24 05:55:03;;;;;;;14.18;2.47;;;9.20;99.90;;;;;;5011049;28;20045;-62
2022/12/24 05:57:29;;;;;;;9.93;1.50;;;9.20;99.90;;;;;;5011912;28;20536;-60
2022/12/24 05:59:54;;;;;;;9.75;1.75;;;9.20;99.90;;;;;;5010638;28;20065;-60
2022/12/24 06:02:20;;;;;;;10.90;1.40;;;9.20;99.90;;;;;;5009893;28;20117;-60
2022/12/24 06:04:46;;;;;;;9.27;2.38;;;9.20;99.90;;;;;;5011502;28;20057;-60
2022/12/24 06:07:11;;;;;;;11.82;1.85;;;9.30;99.90;;;;;;5015539;28;20375;-60
2022/12/24 06:09:37;;;;;;;7.72;1.90;;;9.40;99.90;;;;;;5011953;28;20034;-60
2022/12/24 06:12:03;;;;;;;5.00;1.65;;;9.50;99.90;;;;;;5010529;28;20034;-61
2022/12/24 06:14:29;;;;;;;6.85;2.10;;;9.50;99.90;;;;;;5011780;28;20087;-60
2022/12/24 06:16:54;;;;;;;10.65;2.95;;;9.50;99.90;;;;;;5011319;28;20022;-60
2022/12/24 06:19:20;;;;;;;10.27;2.10;;;9.60;99.90;;;;;;5011120;28;20528;-61
2022/12/24 06:21:46;;;;;;;6.40;1.63;;;9.50;99.90;;;;;;5012095;28;20022;-60
2022/12/24 06:24:11;;;;;;;12.73;3.65;;;9.50;99.90;;;;;;5010921;28;20122;-60
2022/12/24 06:26:37;;;;;;;6.93;1.73;;;9.50;99.90;;;;;;5013506;28;20046;-60
2022/12/24 06:29:02;;;;;;;5.05;1.33;;;9.40;99.90;;;;;;5010804;28;20440;-60
2022/12/24 06:31:28;;;;;;;8.30;1.88;;;9.40;99.90;;;;;;5011295;28;20030;-61
2022/12/24 06:33:54;;;;;;;10.75;1.85;;;9.30;99.90;;;;;;5010976;28;20076;-60
2022/12/24 06:36:24;;;;;;;7.43;1.60;;;9.30;99.90;;;;;;5010817;28;20475;-60
2022/12/24 06:38:51;;;;;;;14.83;1.80;;;9.30;99.90;;;;;;5010507;28;20136;-59
2022/12/24 06:41:17;;;;;;;9.48;2.42;;;9.30;99.90;;;;;;5012122;28;20034;-59
2022/12/24 06:43:48;;;;;;;7.53;1.48;;;9.40;99.90;;;;;;5009801;28;20038;-60
2022/12/24 06:46:14;;;;;;;14.15;2.17;;;9.30;99.90;;;;;;5009560;28;20018;-60
2022/12/24 06:48:41;;;;;;;8.32;2.03;;;9.30;99.90;;;;;;5011129;28;20038;-60
2022/12/24 06:51:06;;;;;;;7.95;2.30;;;9.30;99.90;;;;;;5009097;28;20033;-60
2022/12/24 06:53:32;;;;;;;10.43;2.20;;;9.40;99.90;;;;;;5009841;28;20041;-59
2022/12/24 06:56:10;;;;;;;10.95;2.08;;;9.40;99.90;;;;;;5010024;28;20084;-59
2022/12/24 06:58:36;;;;;;;6.75;1.50;;;9.40;99.90;;;;;;5008292;28;20034;-59
2022/12/24 07:01:06;;;;;;;15.63;2.35;;;9.40;99.90;;;;;;5010085;28;20029;-60
2022/12/24 07:03:32;;;;;;;6.32;1.65;;;9.50;99.90;;;;;;5009600;28;20026;-60
2022/12/24 07:05:58;;;;;;;13.98;2.58;;;9.50;99.90;;;;;;5008957;28;20030;-60
2022/12/24 07:08:23;;;;;;;10.43;1.58;;;9.50;99.90;;;;;;5007899;28;20666;-60
2022/12/24 07:10:50;;;;;;;10.95;2.67;;;9.50;99.90;;;;;;5009455;28;20038;-61
2022/12/24 07:13:16;;;;;;;12.30;1.50;;;9.40;99.90;;;;;;5009521;28;20178;-60
2022/12/24 07:15:42;;;;;;;9.82;1.60;;;9.40;99.90;;;;;;5009082;28;20466;-60
2022/12/24 07:18:07;;;;;;;16.08;2.08;;;9.30;99.90;;;;;;5008412;28;20033;-60
2022/12/24 07:20:33;;;;;;;9.35;1.88;;;9.20;99.90;;;;;;5007353;28;20061;-60
2022/12/24 07:22:59;;;;;;;9.98;1.58;;;9.10;99.90;;;;;;5009867;28;20038;-61
2022/12/24 07:25:24;;;;;;;5.03;1.58;;;9.00;99.90;;;;;;5008282;28;20038;-60
2022/12/24 07:27:50;;;;;;;9.88;1.80;;;9.00;99.90;;;;;;5010345;28;20581;-61
2022/12/24 07:30:16;;;;;;;8.75;2.67;;;8.90;99.90;;;;;;5009401;28;20034;-61
2022/12/24 07:32:41;;;;;;;7.28;1.40;;;8.90;99.90;;;;;;5009686;28;20521;-59
2022/12/24 07:35:07;;;;;;;4.90;1.50;;;8.80;99.90;;;;;;5009586;28;20030;-60
2022/12/24 07:37:35;;;;;;;7.90;1.90;;;8.80;99.90;;;;;;5008680;28;20034;-60
2022/12/24 07:40:01;;;;;;;16.60;1.90;;;8.70;99.90;;;;;;5009482;28;20412;-60
2022/12/24 07:42:26;;;;;;;6.45;1.70;;;8.60;99.90;;;;;;5009463;28;20014;-60
2022/12/24 07:44:52;;;;;;;14.75;1.83;;;8.60;99.90;;;;;;5009509;28;20053;-61
2022/12/24 07:47:18;;;;;;;13.48;1.88;;;8.60;99.90;;;;;;5009522;28;20442;-60
2022/12/24 07:49:43;;;;;;;10.35;2.03;;;8.60;99.90;;;;;;5009264;28;20469;-61
2022/12/24 07:52:12;;;;;;;9.43;2.33;;;8.60;99.90;;;;;;5009485;28;20089;-59
2022/12/24 07:54:37;;;;;;;6.82;2.33;;;8.60;99.90;;;;;;4995777;28;20395;-63
2022/12/24 07:57:03;;;;;;;13.55;2.65;;;8.60;99.90;;;;;;5007838;28;20048;-59
2022/12/24 07:59:29;;;;;;;9.38;2.00;;;8.60;99.90;;;;;;5008215;28;20435;-60
2022/12/24 08:01:54;;;;;;;5.20;1.60;;;8.70;99.90;;;;;;5007590;28;20521;-60
2022/12/24 08:04:20;;;;;;;11.40;1.90;;;8.70;99.90;;;;;;5007781;28;20044;-60
2022/12/24 08:06:45;;;;;;;10.57;1.60;;;8.70;99.90;;;;;;5007790;28;20014;-60
2022/12/24 08:09:13;;;;;;;7.05;1.67;;;8.60;99.90;;;;;;5008297;28;20109;-61
2022/12/24 08:11:38;;;;;;;13.23;2.80;;;8.70;99.90;;;;;;5009071;28;20034;-60
2022/12/24 08:14:04;;;;;;;10.80;2.72;;;8.80;99.90;;;;;;5009104;28;20042;-59
2022/12/24 08:16:30;;;;;;;8.90;1.77;;;9.00;99.90;;;;;;5008664;28;20371;-60
2022/12/24 08:18:55;;;;;;;8.93;1.67;;;9.00;99.90;;;;;;5008892;28;20486;-59
2022/12/24 08:21:21;;;;;;;9.68;1.83;;;9.10;99.90;;;;;;5008724;28;20459;-59
2022/12/24 08:23:46;;;;;;;7.03;1.83;;;9.20;99.90;;;;;;5007986;28;20550;-58
2022/12/24 08:26:12;;;;;;;8.10;2.17;;;9.30;99.90;;;;;;5006946;28;20105;-60
2022/12/24 08:28:38;;;;;;;7.40;2.15;;;9.40;99.90;;;;;;5008221;28;20022;-60
2022/12/24 08:31:05;;;;;;;9.73;2.03;;;9.40;99.90;;;;;;5008820;28;20022;-61
2022/12/24 08:33:31;;;;;;;14.80;3.42;;;9.50;99.90;;;;;;5007279;28;20069;-60
2022/12/24 08:35:57;;;;;;;13.88;1.85;;;9.50;99.90;;;;;;5007931;28;20695;-60
2022/12/24 08:38:23;;;;;;;9.02;2.08;;;9.50;99.90;;;;;;5010632;28;20121;-60
2022/12/24 08:40:51;;;;;;;15.13;3.22;;;9.50;99.90;;;;;;5010091;28;20022;-60
2022/12/24 08:43:17;;;;;;;9.90;1.58;;;9.50;99.90;;;;;;5007573;28;20049;-60
2022/12/24 08:45:45;;;;;;;7.00;2.20;;;9.50;99.90;;;;;;5008450;28;20026;-59
2022/12/24 08:48:11;;;;;;;11.45;2.33;;;9.50;99.90;;;;;;4989916;28;20034;-60
2022/12/24 08:50:40;;;;;;;8.27;1.52;;;9.50;99.90;;;;;;5006810;28;20521;-60
2022/12/24 08:53:07;;;;;;;8.00;1.35;;;9.50;99.90;;;;;;5007145;28;20038;-61
2022/12/24 08:55:32;;;;;;;15.50;2.33;;;9.50;99.90;;;;;;5007976;28;20053;-60
2022/12/24 08:57:59;;;;;;;12.80;1.83;;;9.40;99.90;;;;;;5011273;28;20025;-59
2022/12/24 09:00:25;;;;;;;8.75;2.10;;;9.40;99.90;;;;;;5004597;28;20537;-60
2022/12/24 09:02:50;;;;;;;9.63;2.70;;;9.40;99.90;;;;;;5004904;28;20050;-59
2022/12/24 09:05:16;;;;;;;6.18;1.70;;;9.40;99.90;;;;;;5004467;28;20035;-59
2022/12/24 09:07:42;;;;;;;12.80;3.65;;;9.40;99.90;;;;;;4990165;28;20035;-59
2022/12/24 09:10:09;;;;;;;9.15;2.15;;;9.30;99.90;;;;;;5006193;28;20022;-60
2022/12/24 09:12:35;;;;;;;9.07;2.08;;;9.30;99.90;;;;;;5007671;28;20018;-59
2022/12/24 09:15:00;;;;;;;12.15;3.28;;;9.40;99.90;;;;;;5006121;28;20030;-59
2022/12/24 09:17:26;;;;;;;7.55;1.83;;;9.40;99.90;;;;;;5007104;28;20030;-60
2022/12/24 09:19:51;;;;;;;10.02;2.20;;;9.50;99.90;;;;;;5005358;28;20600;-60
2022/12/24 09:22:17;;;;;;;13.35;2.50;;;9.60;99.90;;;;;;5003742;28;20486;-60
2022/12/24 09:24:43;;;;;;;13.88;2.60;;;9.70;99.90;;;;;;5003368;28;20022;-59
2022/12/24 09:27:08;;;;;;;15.70;2.25;;;9.80;99.90;;;;;;5002202;28;20502;-59
2022/12/24 09:29:35;;;;;;;10.48;2.10;;;9.80;99.90;;;;;;5004718;28;20040;-59
2022/12/24 09:32:00;;;;;;;15.50;2.85;;;9.80;99.90;;;;;;5005477;28;20034;-60
2022/12/24 09:34:26;;;;;;;11.60;2.70;;;9.80;99.90;;;;;;5007075;28;20084;-60
2022/12/24 09:36:53;;;;;;;12.63;2.17;;;9.80;99.90;;;;;;5006601;28;20022;-61
2022/12/24 09:39:19;;;;;;;9.48;2.40;;;9.80;99.90;;;;;;5006706;28;20037;-62
2022/12/24 09:42:04;;;;;;;7.32;2.25;;;9.90;99.90;;;;;;5005302;28;20025;-60
2022/12/24 09:44:45;;;;;;;10.88;2.00;;;9.90;99.90;;;;;;4965692;28;20120;-60
2022/12/24 09:47:28;;;;;;;11.33;2.13;;;9.80;99.90;;;;;;5006321;28;20034;-61
2022/12/24 09:49:58;;;;;;;11.07;2.20;;;9.80;99.90;;;;;;5006031;28;21074;-61
2022/12/24 09:52:37;;;;;;;12.23;2.65;;;9.80;99.90;;;;;;5006308;28;20082;-61
2022/12/24 09:55:14;;;;;;;12.30;2.58;;;9.70;99.90;;;;;;5005667;28;20767;-60
2022/12/24 09:57:41;;;;;;;11.95;2.35;;;9.70;99.90;;;;;;5007350;28;20390;-58
2022/12/24 10:00:27;;;;;;;7.47;2.03;;;9.70;99.90;;;;;;5006289;28;20616;-60
2022/12/24 10:02:53;;;;;;;12.10;2.10;;;9.70;99.90;;;;;;4993043;28;20790;-60
2022/12/24 10:05:44;;;;;;;10.80;2.65;;;9.70;99.90;;;;;;5007596;28;20117;-61
2022/12/24 10:08:20;;;;;;;9.35;2.47;;;9.70;99.90;;;;;;5006567;28;20836;-60
2022/12/24 10:10:52;;;;;;;8.57;3.53;;;9.70;99.90;;;;;;5007230;28;20115;-60
2022/12/24 10:13:37;;;;;;;10.38;1.85;;;9.80;99.90;;;;;;5005475;28;20022;-61
2022/12/24 10:16:24;;;;;;;9.95;2.58;;;9.90;99.90;;;;;;5006900;28;20501;-60
2022/12/24 10:19:11;;;;;;;12.95;2.05;;;10.00;99.90;;;;;;5006663;28;20029;-61
2022/12/24 10:22:06;;;;;;;8.15;2.08;;;10.10;99.90;;;;;;5010614;28;20042;-60
2022/12/24 10:24:42;;;;;;;9.65;2.30;;;10.20;99.90;;;;;;5010495;28;20041;-60
2022/12/24 10:27:16;;;;;;;7.18;2.28;;;10.30;99.90;;;;;;5011011;28;20033;-58
2022/12/24 10:29:47;;;;;;;7.88;1.80;;;10.30;99.90;;;;;;5008592;28;20023;-58
2022/12/24 10:32:21;;;;;;;13.32;3.15;;;10.40;99.90;;;;;;5010915;28;20576;-58
2022/12/24 10:35:13;;;;;;;5.22;1.73;;;10.40;99.90;;;;;;5010577;28;20030;-58
2022/12/24 10:37:41;;;;;;;11.35;2.20;;;10.40;99.90;;;;;;4981289;28;20049;-61
2022/12/24 10:40:32;;;;;;;8.80;2.53;;;10.40;99.90;;;;;;5010223;28;20033;-57
2022/12/24 10:42:58;;;;;;;12.75;2.70;;;10.40;99.90;;;;;;5001622;28;20704;-58
2022/12/24 10:45:29;;;;;;;10.55;2.13;;;10.30;99.90;;;;;;5010977;28;20453;-60
2022/12/24 10:48:00;;;;;;;;;;;10.30;99.90;;;;;;5008622;28;20031;-60
2022/12/24 10:50:38;;;;;;;7.70;1.70;;;10.30;99.90;;;;;;5009010;28;20692;-60
2022/12/24 10:53:11;;;;;;;7.10;1.77;;;10.30;99.90;;;;;;5009523;28;20458;-60
2022/12/24 10:55:37;;;;;;;6.30;1.55;;;10.30;99.90;;;;;;5010478;28;20033;-60
2022/12/24 10:58:13;;;;;;;7.50;1.90;;;10.20;99.90;;;;;;5009653;28;20026;-59
2022/12/24 11:00:40;;;;;;;9.68;1.63;;;10.20;99.90;;;;;;5010866;28;20014;-58
2022/12/24 11:03:11;;;;;;;4.45;1.10;;;10.10;99.90;;;;;;5010154;28;20108;-58
2022/12/24 11:05:38;;;;;;;;;;;10.10;99.90;;;;;;5010066;28;20064;-57
2022/12/24 11:08:13;;;;;;;3.67;1.08;;;10.00;99.90;;;;;;5010435;28;19913;-58
2022/12/24 11:10:54;;;;;;;4.05;1.30;;;10.00;99.90;;;;;;5007858;28;20046;-59
2022/12/24 11:13:27;;;;;;;5.65;1.23;;;9.90;99.90;;;;;;5008667;28;20124;-57
2022/12/24 11:16:16;;;;;;;3.72;1.38;;;9.90;99.90;;;;;;5009464;28;20034;-59
2022/12/24 11:18:50;;;;;;;7.25;1.90;;;9.80;99.90;;;;;;5009110;28;20042;-59
2022/12/24 11:21:34;;;;;;;3.50;1.67;;;9.70;99.90;;;;;;5008979;28;20054;-60
2022/12/24 11:24:07;;;;;;;9.10;2.60;;;9.60;99.90;;;;;;5009037;28;20045;-59
2022/12/24 11:26:33;;;;;;;9.50;3.47;;;9.60;99.90;;;;;;5008147;28;20117;-57
2022/12/24 11:29:23;;;;;;;7.10;2.85;;;9.60;99.90;;;;;;5008651;28;20113;-58
2022/12/24 11:31:51;;;;;;;6.65;1.48;;;9.60;99.90;;;;;;4997777;28;20076;-60
2022/12/24 11:34:21;;;;;;;6.72;1.77;;;9.60;99.90;;;;;;5008887;28;20017;-60
2022/12/24 11:36:46;;;;;;;3.55;1.75;;;9.70;99.90;;;;;;5009778;28;20484;-60
2022/12/24 11:39:24;;;;;;;9.13;1.85;;;9.90;99.90;;;;;;5009238;28;20042;-58
2022/12/24 11:41:52;;;;;;;4.03;1.77;;;10.00;99.90;;;;;;5009386;28;20048;-58
2022/12/24 11:44:27;;;;;;;5.28;2.83;;;10.20;99.90;;;;;;5007538;28;20606;-58
2022/12/24 11:46:57;;;;;;;4.30;1.27;;;10.30;99.90;;;;;;5009450;28;20040;-58
2022/12/24 11:49:30;;;;;;;5.95;1.55;;;10.40;99.90;;;;;;5009459;28;20129;-58
2022/12/24 11:52:09;;;;;;;6.35;1.63;;;10.40;99.90;;;;;;5009531;28;20038;-58
2022/12/24 11:55:00;;;;;;;4.85;1.92;;;10.50;99.90;;;;;;5009933;28;20108;-58
2022/12/24 11:57:38;;;;;;;6.00;2.03;;;10.50;99.90;;;;;;5008549;28;20042;-58
2022/12/24 12:00:05;;;;;;;6.38;1.70;;;10.60;99.90;;;;;;5008533;28;20045;-58
2022/12/24 12:02:36;;;;;;;6.57;2.20;;;10.70;99.90;;;;;;5008566;28;20494;-60
2022/12/24 12:05:08;;;;;;;7.47;2.10;;;10.90;99.90;;;;;;5009143;28;20042;-60
2022/12/24 12:07:35;;;;;;;9.55;2.33;;;10.90;99.90;;;;;;5006398;28;20033;-59
2022/12/24 12:10:30;;;;;;;7.22;2.25;;;10.90;99.90;;;;;;5008651;28;20025;-60
2022/12/24 12:12:56;;;;;;;11.70;2.78;;;10.80;99.90;;;;;;5008221;28;20023;-58
2022/12/24 12:15:25;;;;;;;11.20;2.30;;;10.80;99.90;;;;;;5008523;28;20041;-57
2022/12/24 12:18:07;;;;;;;11.10;2.95;;;10.70;99.90;;;;;;5009410;28;20277;-58
2022/12/24 12:20:42;;;;;;;9.35;2.47;;;10.60;99.90;;;;;;5007100;28;20433;-59
2022/12/24 12:23:19;;;;;;;14.55;2.92;;;10.60;99.90;;;;;;5008439;28;20056;-59
2022/12/24 12:26:06;;;;;;;17.00;2.67;;;10.60;99.90;;;;;;5008255;28;20052;-59
2022/12/24 12:28:41;;;;;;;12.48;2.67;;;10.60;99.90;;;;;;5008830;28;20080;-58
2022/12/24 12:31:38;;;;;;;9.95;2.00;;;10.60;99.90;;;;;;5008040;28;20545;-57
2022/12/24 12:34:19;;;;;;;11.55;2.75;;;10.60;99.90;;;;;;4986321;28;20046;-58
2022/12/24 12:36:50;;;;;;;15.93;2.90;;;10.60;99.90;;;;;;5007692;28;20065;-58
2022/12/24 12:39:16;;;;;;;8.90;2.80;;;10.50;99.90;;;;;;5008689;28;20088;-59
2022/12/24 12:42:06;;;;;;;9.93;2.70;;;10.50;99.90;;;;;;5007628;28;20112;-62
2022/12/24 12:44:34;;;;;;;12.52;2.92;;;10.50;99.90;;;;;;5007401;28;20030;-59
2022/12/24 12:47:18;;;;;;;14.27;2.60;;;10.60;99.90;;;;;;5010057;28;20034;-59
2022/12/24 12:49:53;;;;;;;9.10;2.13;;;10.60;99.90;;;;;;5006089;28;20101;-58
2022/12/24 12:52:43;;;;;;;9.18;2.60;;;10.60;99.90;;;;;;5007947;28;20097;-59
2022/12/24 12:55:44;;;;;;;7.77;2.63;;;10.50;99.90;;;;;;5007525;28;20033;-59
2022/12/24 12:58:30;;;;;;;15.07;2.63;;;10.40;99.90;;;;;;5008652;28;20260;-58
2022/12/24 13:01:13;;;;;;;14.10;2.80;;;10.30;99.90;;;;;;5007475;28;20026;-59
2022/12/24 13:04:00;;;;;;;12.77;2.60;;;10.20;99.90;;;;;;5006661;28;20049;-59
2022/12/24 13:06:42;;;;;;;7.57;1.98;;;10.20;99.90;;;;;;5007355;28;20049;-59
2022/12/24 13:09:35;;;;;;;10.25;2.05;;;10.20;99.90;;;;;;5008300;28;20026;-59
2022/12/24 13:12:21;;;;;;;8.15;1.80;;;10.20;99.90;;;;;;5007783;28;20125;-58
2022/12/24 13:15:15;;;;;;;13.52;2.60;;;10.20;99.90;;;;;;5008081;28;20508;-59
2022/12/24 13:17:43;;;;;;;10.73;1.92;;;10.20;99.90;;;;;;5007246;28;20053;-58